createdAt,value
2017-05-26T05:07:38.552Z,10.20
2017-05-26T05:10:04.982Z,10.78
2017-05-26T05:12:32.379Z,11.24
2017-05-26T05:15:05.032Z,11.32
2017-05-26T05:17:36.482Z,10.24
2017-05-26T05:20:03.090Z,10.78
2017-05-26T05:22:29.668Z,9.84
2017-05-26T05:24:56.834Z,10.76
2017-05-26T05:27:25.179Z,11.46
2017-05-26T05:29:52.249Z,9.82
2017-05-26T05:32:20.620Z,10.38
2017-05-26T05:34:50.811Z,10.88
2017-05-26T05:37:18.240Z,11.08
2017-05-26T05:39:44.672Z,11.98
2017-05-26T05:42:11.905Z,12.04
2017-05-26T05:44:39.109Z,11.56
2017-05-26T05:47:05.519Z,11.54
2017-05-26T05:49:41.288Z,11.38
2017-05-26T05:52:14.971Z,12.30
2017-05-26T05:54:43.838Z,11.70
2017-05-26T05:57:11.249Z,10.68
2017-05-26T05:59:40.732Z,10.20
2017-05-26T06:02:19.282Z,12.14
2017-05-26T06:04:46.420Z,10.96
2017-05-26T06:07:15.639Z,11.06
2017-05-26T06:09:43.094Z,10.14
2017-05-26T06:12:11.467Z,9.64
2017-05-26T06:14:39.651Z,11.06
2017-05-26T06:17:10.468Z,9.02
2017-05-26T06:19:36.855Z,8.32
2017-05-26T06:22:04.283Z,8.92
2017-05-26T06:24:31.470Z,8.22
2017-05-26T06:26:58.065Z,8.66
2017-05-26T06:29:24.480Z,8.38
2017-05-26T06:31:51.011Z,8.40
2017-05-26T06:34:17.459Z,8.58
2017-05-26T06:36:43.851Z,7.38
2017-05-26T06:39:10.340Z,9.22
2017-05-26T06:41:37.727Z,10.12
2017-05-26T06:44:04.112Z,8.38
2017-05-26T06:46:34.886Z,8.98
2017-05-26T06:49:02.079Z,8.06
2017-05-26T06:51:28.666Z,12.76
2017-05-26T06:53:55.072Z,9.64
2017-05-26T06:59:10.774Z,9.18
2017-05-26T07:01:38.275Z,9.36
2017-05-26T07:04:04.663Z,9.30
2017-05-26T07:06:31.936Z,8.00
2017-05-26T07:08:58.775Z,7.86
2017-05-26T07:11:25.177Z,8.34
2017-05-26T07:13:51.638Z,9.02
2017-05-26T07:16:18.096Z,9.40
2017-05-26T07:18:44.496Z,8.82
2017-05-26T07:21:11.703Z,8.24
2017-05-26T07:23:40.481Z,9.28
2017-05-26T07:26:07.670Z,8.16
2017-05-26T07:28:34.754Z,8.94
2017-05-26T07:31:01.964Z,7.96
2017-05-26T07:33:28.375Z,8.38
2017-05-26T07:35:55.084Z,6.90
2017-05-26T07:38:22.435Z,7.52
2017-05-26T07:40:48.783Z,6.90
2017-05-26T07:43:15.110Z,7.12
2017-05-26T07:45:42.320Z,6.64
2017-05-26T07:48:08.731Z,5.94
2017-05-26T07:50:35.163Z,16.56
2017-05-26T07:53:01.639Z,7.60
2017-05-26T07:55:28.036Z,5.92
2017-05-26T07:57:54.411Z,5.62
2017-05-26T08:00:20.856Z,5.68
2017-05-26T08:02:47.327Z,5.94
2017-05-26T08:05:14.458Z,4.76
2017-05-26T08:07:41.719Z,9.12
2017-05-26T08:10:08.151Z,5.26
2017-05-26T08:12:34.548Z,14.78
2017-05-26T08:15:00.903Z,5.18
2017-05-26T08:17:27.340Z,4.16
2017-05-26T08:19:54.287Z,4.60
2017-05-26T08:22:20.725Z,5.76
2017-05-26T08:24:52.021Z,4.84
2017-05-26T08:27:19.119Z,3.66
2017-05-26T08:29:45.851Z,5.84
2017-05-26T08:32:12.187Z,4.54
2017-05-26T08:34:38.547Z,4.52
2017-05-26T08:37:04.958Z,3.30
2017-05-26T08:39:31.328Z,3.88
2017-05-26T08:41:57.767Z,4.70
2017-05-26T08:44:24.270Z,3.86
2017-05-26T08:46:50.596Z,3.88
2017-05-26T08:49:16.967Z,3.32
2017-05-26T08:51:43.323Z,3.32
2017-05-26T08:54:09.732Z,3.72
2017-05-26T08:56:36.095Z,4.18
2017-05-26T08:59:02.687Z,3.68
2017-05-26T09:01:29.064Z,4.22
2017-05-26T09:03:55.412Z,5.36
2017-05-26T09:06:22.920Z,3.64
2017-05-26T09:08:53.441Z,3.04
2017-05-26T09:11:19.871Z,4.32
2017-05-26T09:13:47.091Z,5.80
2017-05-26T09:16:13.447Z,3.98
2017-05-26T09:18:39.847Z,3.70
2017-05-26T09:21:06.207Z,3.60
2017-05-26T09:23:32.550Z,4.04
2017-05-26T09:25:58.969Z,4.32
2017-05-26T09:28:25.472Z,3.30
2017-05-26T09:30:51.835Z,2.70
2017-05-26T09:33:18.232Z,3.76
2017-05-26T09:35:44.571Z,5.16
2017-05-26T09:38:10.967Z,3.20
2017-05-26T09:40:37.284Z,2.82
2017-05-26T09:43:03.674Z,4.68
2017-05-26T09:45:30.093Z,2.74
2017-05-26T09:48:07.336Z,2.54
2017-05-26T09:50:33.759Z,3.74
2017-05-26T09:53:00.136Z,2.10
2017-05-26T09:55:26.460Z,2.66
2017-05-26T09:57:52.987Z,2.20
2017-05-26T10:00:19.355Z,3.68
2017-05-26T10:02:45.708Z,2.48
2017-05-26T10:05:12.181Z,2.42
2017-05-26T10:07:38.587Z,2.36
2017-05-26T10:10:05.034Z,2.82
2017-05-26T10:12:31.496Z,2.92
2017-05-26T10:15:00.687Z,1.74
2017-05-26T10:17:27.817Z,2.46
2017-05-26T10:19:54.624Z,2.82
2017-05-26T10:22:20.987Z,2.44
2017-05-26T10:24:47.357Z,3.14
2017-05-26T10:27:13.794Z,2.58
2017-05-26T10:29:47.847Z,2.90
2017-05-26T10:32:14.557Z,2.32
2017-05-26T10:34:41.015Z,2.10
2017-05-26T10:37:08.123Z,1.94
2017-05-26T10:39:34.459Z,2.20
2017-05-26T10:42:00.811Z,2.38
2017-05-26T10:44:27.240Z,2.96
2017-05-26T10:46:53.567Z,3.84
2017-05-26T10:49:20.224Z,2.12
2017-05-26T10:51:46.674Z,3.28
2017-05-26T10:54:13.276Z,2.92
2017-05-26T10:56:39.942Z,2.30
2017-05-26T10:59:06.321Z,4.14
2017-05-26T11:01:38.482Z,2.72
2017-05-26T11:04:12.016Z,2.48
2017-05-26T11:06:39.906Z,2.66
2017-05-26T11:09:06.256Z,4.40
2017-05-26T11:11:39.483Z,2.44
2017-05-26T11:14:05.946Z,2.50
2017-05-26T11:19:22.387Z,2.60
2017-05-26T11:21:50.099Z,4.06
2017-05-26T11:24:16.564Z,2.48
2017-05-26T11:26:46.330Z,4.06
2017-05-26T11:29:12.811Z,4.64
2017-05-26T11:31:43.851Z,2.56
2017-05-26T11:34:10.289Z,2.28
2017-05-26T11:36:36.799Z,2.16
2017-05-26T11:39:03.267Z,2.48
2017-05-26T11:41:29.679Z,2.26
2017-05-26T11:43:56.134Z,2.80
2017-05-26T11:46:27.664Z,3.18
2017-05-26T11:48:57.924Z,2.52
2017-05-26T11:51:24.344Z,2.86
2017-05-26T11:53:50.795Z,3.08
2017-05-26T11:56:17.296Z,3.44
2017-05-26T11:58:43.767Z,2.94
2017-05-26T12:01:10.205Z,3.34
2017-05-26T12:03:36.669Z,4.14
2017-05-26T12:06:03.067Z,3.42
2017-05-26T12:08:30.251Z,5.82
2017-05-26T12:10:56.772Z,3.26
2017-05-26T12:13:23.945Z,3.80
2017-05-26T12:15:50.499Z,3.38
2017-05-26T12:18:16.956Z,3.48
2017-05-26T12:20:43.363Z,3.32
2017-05-26T12:23:09.792Z,2.50
2017-05-26T12:25:36.371Z,3.04
2017-05-26T12:28:17.703Z,3.22
2017-05-26T12:30:44.896Z,2.62
2017-05-26T12:33:11.348Z,2.98
2017-05-26T12:35:37.732Z,2.68
2017-05-26T12:38:04.607Z,2.30
2017-05-26T12:40:31.089Z,2.70
2017-05-26T12:42:58.236Z,3.50
2017-05-26T12:45:24.673Z,3.66
2017-05-26T12:47:51.128Z,3.36
2017-05-26T12:50:17.491Z,2.62
2017-05-26T12:52:44.037Z,2.86
2017-05-26T12:55:10.490Z,3.00
2017-05-26T12:57:36.978Z,3.78
2017-05-26T13:00:03.472Z,3.10
2017-05-26T13:02:29.885Z,2.42
2017-05-26T13:04:57.050Z,3.34
2017-05-26T13:07:30.325Z,3.36
2017-05-26T13:10:00.063Z,3.00
2017-05-26T13:12:26.635Z,4.64
2017-05-26T13:14:53.998Z,4.48
2017-05-26T13:17:20.323Z,3.40
2017-05-26T13:19:46.753Z,2.76
2017-05-26T13:22:13.226Z,3.22
2017-05-26T13:24:39.639Z,4.10
2017-05-26T13:27:06.806Z,3.98
2017-05-26T13:29:34.410Z,3.58
2017-05-26T13:32:00.790Z,3.10
2017-05-26T13:34:27.217Z,2.70
2017-05-26T13:39:44.227Z,3.48
2017-05-26T13:42:11.470Z,4.16
2017-05-26T13:44:37.884Z,2.40
2017-05-26T13:47:04.271Z,3.18
2017-05-26T13:49:31.663Z,2.70
2017-05-26T13:51:58.126Z,2.68
2017-05-26T13:54:24.532Z,2.74
2017-05-26T13:56:51.035Z,2.72
2017-05-26T13:59:18.296Z,2.12
2017-05-26T14:01:44.655Z,3.52
2017-05-26T14:04:11.111Z,1.78
2017-05-26T14:06:38.305Z,2.02
2017-05-26T14:09:04.695Z,3.16
2017-05-26T14:11:31.062Z,4.16
2017-05-26T14:13:59.938Z,2.98
2017-05-26T14:16:27.064Z,3.72
2017-05-26T14:18:53.510Z,2.14
2017-05-26T14:21:19.849Z,6.90
2017-05-26T14:23:46.293Z,2.52
2017-05-26T14:26:12.797Z,1.98
2017-05-26T14:28:39.331Z,4.02
2017-05-26T14:31:05.730Z,1.66
2017-05-26T14:33:32.166Z,3.16
2017-05-26T14:35:58.595Z,1.92
2017-05-26T14:38:25.075Z,2.64
2017-05-26T14:40:53.287Z,1.98
2017-05-26T14:43:19.681Z,2.14
2017-05-26T14:46:01.032Z,3.92
2017-05-26T14:48:27.490Z,3.00
2017-05-26T18:22:51.703Z,3.36
2017-05-26T18:25:18.429Z,3.42
2017-05-26T18:27:46.028Z,2.92
2017-05-26T18:30:14.657Z,3.20
2017-05-26T18:32:42.605Z,2.94
2017-05-26T18:35:09.024Z,5.12
2017-05-26T18:37:36.689Z,3.22
2017-05-26T18:40:04.783Z,3.42
2017-05-26T18:42:31.451Z,4.98
2017-05-26T18:45:02.320Z,2.84
2017-05-26T18:47:30.560Z,2.48
2017-05-26T18:49:57.451Z,2.32
2017-05-26T18:52:25.974Z,4.78
2017-05-26T18:54:53.892Z,2.30
2017-05-26T18:57:20.356Z,2.74
2017-05-26T18:59:46.785Z,3.44
2017-05-26T19:02:13.175Z,2.52
